createdAt,value
2022-11-17T00:02:42.906Z,9.95
2022-11-17T00:07:04.585Z,8.95
2022-11-17T00:11:26.635Z,10.23
2022-11-17T00:15:48.738Z,9.50
2022-11-17T00:20:30.157Z,10.18
2022-11-17T00:24:52.247Z,10.50
2022-11-17T00:29:14.080Z,10.55
2022-11-17T00:33:54.727Z,10.35
2022-11-17T00:38:16.843Z,10.82
2022-11-17T00:42:38.607Z,11.38
2022-11-17T00:47:00.487Z,10.60
2022-11-17T00:51:23.052Z,11.20
2022-11-17T00:55:44.987Z,10.02
2022-11-17T01:00:08.368Z,10.18
2022-11-17T01:04:30.074Z,9.77
2022-11-17T01:08:51.920Z,9.02
2022-11-17T01:13:13.881Z,8.88
2022-11-17T01:17:35.791Z,9.00
2022-11-17T01:21:57.586Z,8.95
2022-11-17T01:26:33.193Z,8.75
2022-11-17T01:31:07.811Z,9.52
2022-11-17T01:35:29.650Z,9.70
2022-11-17T01:39:51.871Z,10.82
2022-11-17T01:45:16.820Z,10.00
2022-11-17T01:49:38.958Z,9.70
2022-11-17T01:54:01.442Z,9.95
2022-11-17T01:58:33.817Z,10.52
2022-11-17T02:02:56.017Z,9.80
2022-11-17T02:07:27.667Z,11.02
2022-11-17T02:11:50.214Z,10.50
2022-11-17T02:16:17.419Z,12.20
2022-11-17T02:20:58.033Z,12.48
2022-11-17T02:26:09.939Z,13.30
2022-11-17T02:30:47.582Z,13.73
2022-11-17T02:35:33.858Z,13.35
2022-11-17T02:40:16.319Z,12.43
2022-11-17T02:44:52.300Z,13.07
2022-11-17T02:49:48.438Z,12.15
2022-11-17T02:54:11.517Z,11.90
2022-11-17T02:58:33.177Z,11.68
2022-11-17T03:03:38.402Z,11.18
2022-11-17T03:08:27.517Z,10.93
2022-11-17T03:13:41.939Z,11.65
2022-11-17T03:18:25.490Z,13.20
2022-11-17T03:23:15.115Z,12.73
2022-11-17T03:27:49.575Z,13.48
2022-11-17T03:32:13.481Z,12.27
2022-11-17T03:36:40.337Z,12.02
2022-11-17T03:41:04.068Z,11.52
2022-11-17T03:45:31.700Z,12.68
2022-11-17T03:50:21.188Z,12.45
2022-11-17T03:54:43.173Z,12.40
2022-11-17T03:59:46.908Z,13.75
2022-11-17T04:04:18.059Z,13.75
2022-11-17T04:08:40.165Z,15.02
2022-11-17T04:13:20.931Z,13.70
2022-11-17T04:17:42.646Z,14.10
2022-11-17T04:22:04.672Z,14.93
2022-11-17T04:26:46.645Z,15.73
2022-11-17T04:31:14.609Z,15.35
2022-11-17T04:35:36.267Z,15.68
2022-11-17T04:39:58.210Z,15.05
2022-11-17T04:44:23.591Z,14.77
2022-11-17T04:48:48.079Z,15.45
2022-11-17T04:53:09.979Z,16.10
2022-11-17T04:57:31.625Z,16.52
2022-11-17T05:01:53.643Z,15.55
2022-11-17T05:06:26.774Z,16.48
2022-11-17T05:11:07.484Z,18.10
2022-11-17T05:15:47.976Z,14.80
2022-11-17T05:20:10.515Z,14.38
2022-11-17T05:24:32.234Z,14.63
2022-11-17T05:28:57.040Z,14.50
2022-11-17T05:33:18.860Z,14.13
2022-11-17T05:37:40.701Z,13.90
2022-11-17T05:42:02.723Z,13.57
2022-11-17T05:46:26.051Z,13.00
2022-11-17T05:50:48.027Z,15.05
2022-11-17T05:55:10.289Z,13.35
2022-11-17T05:59:46.656Z,13.75
2022-11-17T06:04:09.863Z,14.10
2022-11-17T06:08:31.937Z,14.57
2022-11-17T06:12:53.644Z,13.88
2022-11-17T06:17:33.254Z,14.43
2022-11-17T06:22:11.715Z,14.93
2022-11-17T06:26:35.032Z,14.20
2022-11-17T06:30:57.652Z,14.48
2022-11-17T06:35:19.638Z,15.45
2022-11-17T06:39:41.330Z,14.73
2022-11-17T06:44:03.266Z,15.75
2022-11-17T06:48:28.340Z,15.88
2022-11-17T06:52:50.698Z,14.35
2022-11-17T06:57:12.328Z,14.77
2022-11-17T07:01:34.416Z,15.23
2022-11-17T07:06:00.827Z,14.63
2022-11-17T07:10:22.703Z,14.20
2022-11-17T07:14:44.967Z,13.50
2022-11-17T07:19:08.417Z,13.25
2022-11-17T07:23:35.158Z,13.02
2022-11-17T07:28:00.566Z,12.95
2022-11-17T07:32:22.571Z,11.18
2022-11-17T07:36:44.657Z,11.45
2022-11-17T07:41:09.118Z,9.70
2022-11-17T07:45:32.293Z,8.98
2022-11-17T07:49:54.434Z,7.78
2022-11-17T07:54:16.423Z,7.65
2022-11-17T07:58:39.233Z,6.55
2022-11-17T08:03:04.270Z,6.60
2022-11-17T08:07:26.265Z,5.90
2022-11-17T08:11:48.615Z,5.28
2022-11-17T08:16:11.191Z,5.00
2022-11-17T08:20:32.949Z,4.85
2022-11-17T08:24:55.073Z,3.97
2022-11-17T08:29:17.230Z,4.72
2022-11-17T08:33:39.313Z,4.72
2022-11-17T08:38:01.077Z,4.22
2022-11-17T08:42:23.191Z,4.53
2022-11-17T08:46:45.230Z,4.53
2022-11-17T08:51:08.867Z,3.60
2022-11-17T08:55:30.876Z,3.58
2022-11-17T08:59:52.900Z,4.20
2022-11-17T09:04:15.359Z,3.55
2022-11-17T09:08:46.675Z,4.55
2022-11-17T09:13:09.431Z,3.30
2022-11-17T09:17:31.738Z,3.60
2022-11-17T09:21:53.367Z,2.92
2022-11-17T09:26:16.429Z,4.60
2022-11-17T09:30:38.174Z,3.95
2022-11-17T09:35:00.982Z,5.07
2022-11-17T09:39:22.756Z,3.83
2022-11-17T09:44:16.605Z,5.05
2022-11-17T09:48:50.218Z,4.60
2022-11-17T09:53:28.166Z,4.75
2022-11-17T09:58:00.599Z,5.88
2022-11-17T10:02:22.627Z,4.97
2022-11-17T10:06:49.318Z,4.57
2022-11-17T10:11:32.537Z,5.85
2022-11-17T10:16:14.304Z,6.15
2022-11-17T10:20:36.450Z,6.13
2022-11-17T10:24:58.845Z,6.32
2022-11-17T10:29:23.476Z,7.00
2022-11-17T10:33:48.593Z,7.13
2022-11-17T10:38:21.064Z,6.88
2022-11-17T10:43:13.353Z,6.18
2022-11-17T10:47:40.544Z,5.82
2022-11-17T10:52:11.770Z,5.38
2022-11-17T10:56:45.208Z,5.43
2022-11-17T11:01:07.016Z,5.05
2022-11-17T11:05:28.998Z,5.78
2022-11-17T11:10:17.456Z,5.53
2022-11-17T11:14:54.044Z,5.32
2022-11-17T11:19:18.262Z,5.10
2022-11-17T11:24:29.951Z,4.28
2022-11-17T11:29:04.296Z,3.92
2022-11-17T11:33:36.435Z,3.58
2022-11-17T11:38:46.403Z,3.78
2022-11-17T11:43:58.815Z,3.90
2022-11-17T11:48:36.018Z,2.67
2022-11-17T11:53:22.008Z,2.58
2022-11-17T11:58:06.987Z,2.85
2022-11-17T12:02:50.871Z,2.97
2022-11-17T12:07:43.246Z,2.85
2022-11-17T12:12:15.187Z,3.08
2022-11-17T12:16:40.179Z,2.85
2022-11-17T12:21:13.946Z,2.22
2022-11-17T12:25:42.120Z,3.10
2022-11-17T12:30:26.189Z,2.78
2022-11-17T12:35:25.906Z,2.10
2022-11-17T12:39:59.304Z,2.72
2022-11-17T12:44:56.665Z,2.20
2022-11-17T12:49:37.521Z,1.92
2022-11-17T12:54:19.589Z,2.10
2022-11-17T12:59:08.540Z,2.28
2022-11-17T13:03:57.898Z,2.30
2022-11-17T13:08:23.640Z,2.13
2022-11-17T13:12:45.507Z,2.20
2022-11-17T13:17:11.958Z,2.30
2022-11-17T13:21:33.753Z,2.35
2022-11-17T13:26:16.056Z,3.30
2022-11-17T13:30:38.542Z,2.00
2022-11-17T13:35:01.829Z,2.25
2022-11-17T13:39:27.515Z,1.92
2022-11-17T13:43:51.663Z,1.88
2022-11-17T13:48:35.201Z,2.22
2022-11-17T13:53:11.053Z,2.17
2022-11-17T13:57:32.802Z,2.90
2022-11-17T14:02:20.891Z,2.60
2022-11-17T14:07:03.440Z,2.38
2022-11-17T14:11:27.192Z,3.00
2022-11-17T14:15:59.438Z,3.67
2022-11-17T14:20:24.085Z,2.92
2022-11-17T14:24:46.134Z,3.15
2022-11-17T14:29:12.751Z,3.67
2022-11-17T14:33:34.657Z,4.68
2022-11-17T14:37:56.700Z,4.68
2022-11-17T14:42:18.568Z,4.47
2022-11-17T14:46:41.077Z,5.00
2022-11-17T14:51:03.030Z,4.63
2022-11-17T14:55:27.069Z,4.85
2022-11-17T14:59:48.639Z,4.93
2022-11-17T15:09:05.718Z,5.45
2022-11-17T15:13:28.109Z,4.53
2022-11-17T15:17:49.897Z,5.00
2022-11-17T15:22:12.414Z,4.93
2022-11-17T15:26:35.475Z,5.10
2022-11-17T15:30:57.284Z,4.95
2022-11-17T15:35:19.288Z,4.32
2022-11-17T15:39:41.282Z,4.50
2022-11-17T15:44:03.436Z,4.55
2022-11-17T15:48:25.407Z,3.75
2022-11-17T15:53:04.458Z,3.70
2022-11-17T15:57:27.016Z,4.43
2022-11-17T16:01:49.979Z,4.22
2022-11-17T16:06:13.286Z,3.60
2022-11-17T16:10:35.199Z,3.65
2022-11-17T16:14:57.251Z,3.58
2022-11-17T16:19:19.407Z,3.53
2022-11-17T16:23:45.665Z,3.35
2022-11-17T16:28:08.324Z,3.78
2022-11-17T16:32:31.874Z,3.42
2022-11-17T16:36:53.747Z,3.92
2022-11-17T16:41:15.798Z,3.35
2022-11-17T16:45:45.585Z,3.10
2022-11-17T16:50:08.020Z,3.00
2022-11-17T16:54:29.986Z,2.90
2022-11-17T16:58:52.539Z,3.42
2022-11-17T17:03:16.805Z,3.38
2022-11-17T17:07:38.653Z,3.42
2022-11-17T17:12:00.645Z,3.70
2022-11-17T17:16:22.724Z,4.15
2022-11-17T17:20:51.943Z,4.55
2022-11-17T17:25:14.521Z,5.75
2022-11-17T17:29:36.676Z,17.40
2022-11-17T17:34:02.063Z,15.73
2022-11-17T17:38:24.364Z,23.67
2022-11-17T17:42:46.343Z,12.07
2022-11-17T17:47:08.506Z,6.90
2022-11-17T17:51:31.564Z,7.95
2022-11-17T17:55:53.749Z,6.05
2022-11-17T18:00:17.091Z,7.47
2022-11-17T18:04:39.332Z,6.45
2022-11-17T18:09:01.534Z,3.17
2022-11-17T18:13:23.533Z,3.63
2022-11-17T18:17:45.696Z,3.30
2022-11-17T18:22:09.840Z,3.05
2022-11-17T18:26:35.644Z,3.30
2022-11-17T18:31:03.569Z,3.45
2022-11-17T18:35:27.468Z,3.00
2022-11-17T18:39:50.117Z,3.17
2022-11-17T18:44:17.251Z,2.90
2022-11-17T18:48:42.497Z,3.20
2022-11-17T18:53:04.676Z,3.30
2022-11-17T18:57:26.938Z,3.65
2022-11-17T19:01:49.060Z,3.42
2022-11-17T19:06:12.350Z,4.07
2022-11-17T19:10:34.270Z,3.50
2022-11-17T19:14:56.213Z,3.50
2022-11-17T19:19:19.195Z,3.58
2022-11-17T19:23:49.564Z,3.22
2022-11-17T19:28:13.614Z,3.58
2022-11-17T19:32:36.528Z,3.40
2022-11-17T19:36:58.861Z,3.28
2022-11-17T19:41:24.494Z,3.05
2022-11-17T19:45:46.284Z,3.20
2022-11-17T19:50:08.808Z,3.78
2022-11-17T19:54:30.805Z,3.78
2022-11-17T19:58:54.225Z,3.70
2022-11-17T20:03:16.727Z,3.30
2022-11-17T20:07:38.927Z,3.67
2022-11-17T20:12:00.967Z,3.38
2022-11-17T20:16:26.648Z,3.58
2022-11-17T20:20:48.736Z,4.00
2022-11-17T20:25:12.391Z,3.30
2022-11-17T20:29:34.264Z,3.90
2022-11-17T20:34:00.467Z,4.07
2022-11-17T20:38:22.057Z,4.00
2022-11-17T20:42:44.049Z,3.60
2022-11-17T20:47:06.035Z,3.50
2022-11-17T20:51:27.908Z,3.50
2022-11-17T20:55:49.815Z,4.03
2022-11-17T21:00:12.798Z,3.80
2022-11-17T21:04:34.636Z,4.25
2022-11-17T21:08:56.588Z,4.80
2022-11-17T21:13:18.382Z,4.30
2022-11-17T21:17:58.874Z,4.55
2022-11-17T21:22:20.521Z,4.30
2022-11-17T21:26:42.614Z,4.50
2022-11-17T21:31:12.398Z,3.80
2022-11-17T21:35:34.513Z,5.07
2022-11-17T21:39:56.459Z,4.20
2022-11-17T21:44:18.642Z,4.05
2022-11-17T21:48:41.161Z,4.25
2022-11-17T21:53:02.820Z,3.88
2022-11-17T21:57:24.877Z,3.58
2022-11-17T22:01:46.818Z,3.85
2022-11-17T22:06:15.565Z,3.80
2022-11-17T22:10:37.405Z,4.30
2022-11-17T22:14:59.210Z,4.15
2022-11-17T22:19:24.369Z,3.85
2022-11-17T22:23:46.206Z,4.40
2022-11-17T22:28:08.187Z,3.75
2022-11-17T22:32:30.174Z,3.78
2022-11-17T22:36:52.260Z,4.00
2022-11-17T22:41:14.718Z,3.78
2022-11-17T22:45:40.287Z,3.83
2022-11-17T22:50:02.194Z,3.38
2022-11-17T22:54:24.260Z,3.83
2022-11-17T22:58:50.045Z,3.88
2022-11-17T23:03:12.986Z,3.75
2022-11-17T23:07:34.648Z,3.88
2022-11-17T23:11:56.612Z,3.83
2022-11-17T23:16:18.992Z,4.35
2022-11-17T23:20:41.266Z,3.60
2022-11-17T23:25:04.326Z,4.07
2022-11-17T23:29:26.247Z,4.50
2022-11-17T23:33:49.535Z,4.50
2022-11-17T23:38:11.624Z,4.60
2022-11-17T23:42:36.349Z,4.78
2022-11-17T23:47:03.646Z,5.18
2022-11-17T23:51:27.060Z,5.05
2022-11-17T23:55:56.691Z,5.43
